Time;durP1;ratioP1;P1;durP2;ratioP2;P2;SDS_P1;SDS_P2;PMS_P1;PMS_P2;Temp;Humidity;BMP_temperature;BMP_pressure;BME280_temperature;BME280_humidity;BME280_pressure;Samples;Min_cycle;Max_cycle;Signal;HPM_P1;HPM_P2
2023/07/02 00:00:07;;;;;;;;;;;16.40;99.90;;;;;;4975211;28;20295;-70
2023/07/02 00:02:33;;;;;;;;;;;16.40;99.90;;;;;;4975677;28;20037;-69
2023/07/02 00:04:59;;;;;;;;;;;16.40;99.90;;;;;;4975719;28;20326;-69
2023/07/02 00:07:25;;;;;;;;;;;16.30;99.90;;;;;;4971057;28;20372;-70
2023/07/02 00:09:51;;;;;;;;;;;16.30;99.90;;;;;;4975359;28;19926;-69
2023/07/02 00:12:17;;;;;;;;;;;16.30;99.90;;;;;;4976300;28;19930;-69
2023/07/02 00:14:43;;;;;;;;;;;16.30;99.90;;;;;;4924659;28;1084955;-69
2023/07/02 00:17:12;;;;;;;;;;;16.30;99.90;;;;;;4969571;28;19922;-70
2023/07/02 00:19:41;;;;;;;;;;;16.30;99.90;;;;;;4977045;28;19933;-70
2023/07/02 00:22:07;;;;;;;;;;;16.20;99.90;;;;;;4977563;28;20219;-70
2023/07/02 00:24:33;;;;;;;;;;;16.20;99.90;;;;;;4958919;28;19928;-70
2023/07/02 00:26:58;;;;;;;;;;;16.20;99.90;;;;;;4974867;28;20372;-69
2023/07/02 00:29:24;;;;;;;;;;;16.20;99.90;;;;;;4976979;28;19933;-69
2023/07/02 00:31:49;;;;;;;;;;;16.20;99.90;;;;;;4962253;28;20957;-69
2023/07/02 00:34:15;;;;;;;;;;;16.20;99.90;;;;;;4956631;28;19925;-70
2023/07/02 00:36:41;;;;;;;;;;;16.10;99.90;;;;;;4974433;28;19985;-69
2023/07/02 00:39:07;;;;;;;;;;;16.10;99.90;;;;;;4972652;28;20414;-70
2023/07/02 00:41:32;;;;;;;;;;;16.10;99.90;;;;;;4974092;28;20016;-69
2023/07/02 00:43:58;;;;;;;;;;;16.10;99.90;;;;;;4977438;28;19972;-69
2023/07/02 00:46:25;;;;;;;;;;;16.00;99.90;;;;;;4975427;28;19929;-69
2023/07/02 00:48:51;;;;;;;;;;;16.00;99.90;;;;;;4957918;28;19937;-69
2023/07/02 00:51:18;;;;;;;;;;;16.10;99.90;;;;;;4958818;28;19976;-69
2023/07/02 00:53:44;;;;;;;;;;;16.00;99.90;;;;;;4962558;28;19925;-70
2023/07/02 00:56:10;;;;;;;;;;;16.00;99.90;;;;;;4974988;28;20472;-70
2023/07/02 00:58:38;;;;;;;;;;;16.00;99.90;;;;;;4974279;28;20267;-70
2023/07/02 01:01:04;;;;;;;;;;;15.90;99.90;;;;;;4951145;28;20355;-69
2023/07/02 01:03:32;;;;;;;;;;;15.90;99.90;;;;;;4959035;28;19956;-70
2023/07/02 01:06:03;;;;;;;;;;;15.90;99.90;;;;;;4976582;28;19961;-69
2023/07/02 01:08:29;;;;;;;;;;;15.90;99.90;;;;;;4974563;28;19921;-70
2023/07/02 01:10:55;;;;;;;;;;;15.90;99.90;;;;;;4975949;28;19932;-70
2023/07/02 01:13:21;;;;;;;;;;;15.80;99.90;;;;;;4976576;28;21070;-69
2023/07/02 01:15:47;;;;;;;;;;;15.80;99.90;;;;;;4974425;28;19926;-69
2023/07/02 01:18:14;;;;;;;;;;;15.80;99.90;;;;;;4974155;28;20438;-70
2023/07/02 01:20:40;;;;;;;;;;;15.80;99.90;;;;;;4958647;28;19917;-71
2023/07/02 01:23:06;;;;;;;;;;;15.80;99.90;;;;;;4972985;28;19982;-70
2023/07/02 01:25:36;;;;;;;;;;;15.70;99.90;;;;;;4976015;28;20506;-70
2023/07/02 01:28:02;;;;;;;;;;;15.70;99.90;;;;;;4978865;28;19925;-69
2023/07/02 01:30:27;;;;;;;;;;;15.70;99.90;;;;;;4959759;28;19937;-70
2023/07/02 01:32:53;;;;;;;;;;;15.70;99.90;;;;;;4978658;28;20372;-70
2023/07/02 01:35:19;;;;;;;;;;;15.60;99.90;;;;;;4975351;28;19929;-70
2023/07/02 01:37:44;;;;;;;;;;;15.60;99.90;;;;;;4970459;28;20443;-70
2023/07/02 01:40:10;;;;;;;;;;;15.60;99.90;;;;;;4951362;28;19918;-69
2023/07/02 01:42:36;;;;;;;;;;;15.50;99.90;;;;;;4956396;28;20078;-70
2023/07/02 01:45:02;;;;;;;;;;;15.50;99.90;;;;;;4973812;28;19925;-70
2023/07/02 01:47:28;;;;;;;;;;;15.50;99.90;;;;;;4973883;28;19936;-70
2023/07/02 01:49:53;;;;;;;;;;;15.50;99.90;;;;;;4968855;28;19960;-70
2023/07/02 01:52:19;;;;;;;;;;;15.40;99.90;;;;;;4969210;28;19926;-70
2023/07/02 01:54:45;;;;;;;;;;;15.40;99.90;;;;;;4956683;28;19926;-71
2023/07/02 01:57:10;;;;;;;;;;;15.40;99.90;;;;;;4973108;28;19929;-71
2023/07/02 01:59:36;;;;;;;;;;;15.30;99.90;;;;;;4973953;28;19925;-71
2023/07/02 02:02:02;;;;;;;;;;;15.30;99.90;;;;;;4957061;28;19929;-72
2023/07/02 02:04:27;;;;;;;;;;;15.30;99.90;;;;;;4957980;28;20048;-71
2023/07/02 02:06:53;;;;;;;;;;;15.20;99.90;;;;;;4974423;28;20395;-71
2023/07/02 02:09:18;;;;;;;;;;;15.20;99.90;;;;;;4971605;28;20317;-71
2023/07/02 02:11:45;;;;;;;;;;;15.20;99.90;;;;;;4956963;28;20462;-71
2023/07/02 02:14:11;;;;;;;;;;;15.20;99.90;;;;;;4957824;28;19936;-70
2023/07/02 02:16:36;;;;;;;;;;;15.10;99.90;;;;;;4954493;28;19925;-71
2023/07/02 02:19:02;;;;;;;;;;;15.10;99.90;;;;;;4955624;28;20043;-70
2023/07/02 02:21:28;;;;;;;;;;;15.10;99.90;;;;;;4974916;28;20232;-70
2023/07/02 02:23:54;;;;;;;;;;;15.10;99.90;;;;;;4975316;28;20199;-70
2023/07/02 02:26:21;;;;;;;;;;;15.10;99.90;;;;;;4954639;28;20536;-70
2023/07/02 02:28:47;;;;;;;;;;;15.10;99.90;;;;;;4957255;28;19925;-70
2023/07/02 02:31:12;;;;;;;;;;;15.00;99.90;;;;;;4973984;28;19938;-70
2023/07/02 02:33:38;;;;;;;;;;;15.00;99.90;;;;;;4974065;28;19921;-71
2023/07/02 02:36:03;;;;;;;;;;;15.00;99.90;;;;;;4972026;28;19917;-70
2023/07/02 02:38:29;;;;;;;;;;;15.00;99.90;;;;;;4974243;28;20249;-70
2023/07/02 02:40:54;;;;;;;;;;;15.00;99.90;;;;;;4948862;28;19926;-70
2023/07/02 02:43:20;;;;;;;;;;;14.90;99.90;;;;;;4953763;28;20607;-70
2023/07/02 02:45:46;;;;;;;;;;;15.00;99.90;;;;;;4956325;28;19937;-71
2023/07/02 02:48:12;;;;;;;;;;;14.90;99.90;;;;;;4956677;28;20942;-71
2023/07/02 02:50:44;;;;;;;;;;;14.90;99.90;;;;;;4965672;28;20014;-70
2023/07/02 02:53:09;;;;;;;;;;;14.90;99.90;;;;;;4971228;28;19921;-69
2023/07/02 02:55:35;;;;;;;;;;;14.90;99.90;;;;;;4956519;28;20468;-70
2023/07/02 02:58:01;;;;;;;;;;;14.90;99.90;;;;;;4974708;28;20596;-70
2023/07/02 03:00:26;;;;;;;;;;;14.90;99.90;;;;;;4955852;28;19925;-70
2023/07/02 03:02:52;;;;;;;;;;;14.90;99.90;;;;;;4971136;28;19965;-70
2023/07/02 03:05:18;;;;;;;;;;;14.80;99.90;;;;;;4965551;28;19926;-71
2023/07/02 03:07:43;;;;;;;;;;;14.90;99.90;;;;;;4957480;28;19926;-70
2023/07/02 03:10:09;;;;;;;;;;;14.80;99.90;;;;;;4973961;28;19926;-70
2023/07/02 03:12:34;;;;;;;;;;;14.90;99.90;;;;;;4972463;28;20552;-70
2023/07/02 03:15:00;;;;;;;;;;;14.80;99.90;;;;;;4970134;28;19970;-71
2023/07/02 03:17:25;;;;;;;;;;;14.80;99.90;;;;;;4955080;28;19922;-70
2023/07/02 03:19:51;;;;;;;;;;;14.80;99.90;;;;;;4955954;28;19925;-70
2023/07/02 03:22:17;;;;;;;;;;;14.80;99.90;;;;;;4973642;28;19917;-70
2023/07/02 03:24:42;;;;;;;;;;;14.80;99.90;;;;;;4953694;28;19918;-70
2023/07/02 03:27:08;;;;;;;;;;;14.80;99.90;;;;;;4972912;28;19965;-71
2023/07/02 03:29:34;;;;;;;;;;;14.80;99.90;;;;;;4973049;28;20055;-71
2023/07/02 03:32:00;;;;;;;;;;;14.80;99.90;;;;;;4972677;28;19926;-71
2023/07/02 03:34:25;;;;;;;;;;;14.90;99.90;;;;;;4956125;28;21130;-71
2023/07/02 03:36:51;;;;;;;;;;;14.90;99.90;;;;;;4970695;28;20584;-70
2023/07/02 03:39:17;;;;;;;;;;;14.90;99.90;;;;;;4972780;28;19937;-70
2023/07/02 03:41:43;;;;;;;;;;;14.90;99.90;;;;;;4973413;28;20059;-71
2023/07/02 03:44:08;;;;;;;;;;;14.90;99.90;;;;;;4955577;28;19953;-71
2023/07/02 03:46:34;;;;;;;;;;;14.90;99.90;;;;;;4972724;28;20425;-71
2023/07/02 03:49:00;;;;;;;;;;;14.90;99.90;;;;;;4951722;28;19933;-71
2023/07/02 03:51:26;;;;;;;;;;;15.00;99.90;;;;;;4955727;28;19944;-70
2023/07/02 03:53:51;;;;;;;;;;;15.00;99.90;;;;;;4971315;28;20351;-71
2023/07/02 03:56:17;;;;;;;;;;;15.00;99.90;;;;;;4971958;28;20418;-70
2023/07/02 03:58:42;;;;;;;;;;;15.00;99.90;;;;;;4965873;28;19944;-71
2023/07/02 04:01:08;;;;;;;;;;;15.10;99.90;;;;;;4955746;28;20005;-70
2023/07/02 04:03:34;;;;;;;;;;;15.10;99.90;;;;;;4969798;28;20028;-70
2023/07/02 04:05:59;;;;;;;;;;;15.10;99.90;;;;;;4954999;28;20560;-71
2023/07/02 04:08:25;;;;;;;;;;;15.10;99.90;;;;;;4955938;28;20265;-70
2023/07/02 04:10:51;;;;;;;;;;;15.10;99.90;;;;;;4955045;28;20357;-70
2023/07/02 04:13:16;;;;;;;;;;;15.10;99.90;;;;;;4973228;28;19925;-70
2023/07/02 04:15:42;;;;;;;;;;;15.10;99.90;;;;;;4954311;28;19925;-69
2023/07/02 04:18:08;;;;;;;;;;;15.10;99.90;;;;;;4956246;28;19926;-70
2023/07/02 04:20:33;;;;;;;;;;;15.20;99.90;;;;;;4965641;28;19928;-69
2023/07/02 04:22:59;;;;;;;;;;;15.20;99.90;;;;;;4972944;28;20043;-70
2023/07/02 04:25:25;;;;;;;;;;;15.20;99.90;;;;;;4973664;28;19932;-70
2023/07/02 04:27:50;;;;;;;;;;;15.20;99.90;;;;;;4955361;28;19925;-70
2023/07/02 04:30:16;;;;;;;;;;;15.20;99.90;;;;;;4975587;28;20558;-70
2023/07/02 04:32:41;;;;;;;;;;;15.20;99.90;;;;;;4961755;28;20621;-69
2023/07/02 04:35:08;;;;;;;;;;;15.20;99.90;;;;;;4973213;28;19937;-69
2023/07/02 04:37:33;;;;;;;;;;;15.20;99.90;;;;;;4973989;28;19921;-70
2023/07/02 04:39:59;;;;;;;;;;;15.20;99.90;;;;;;4973497;28;19960;-69
2023/07/02 04:42:27;;;;;;;;;;;15.30;99.90;;;;;;4955330;28;19929;-68
2023/07/02 04:44:54;;;;;;;;;;;15.30;99.90;;;;;;4975177;28;20008;-69
2023/07/02 04:47:19;;;;;;;;;;;15.30;99.90;;;;;;4975328;28;19943;-69
2023/07/02 04:49:45;;;;;;;;;;;15.30;99.90;;;;;;4959456;28;19932;-69
2023/07/02 04:52:11;;;;;;;;;;;15.30;99.90;;;;;;4958332;28;19929;-70
2023/07/02 04:54:36;;;;;;;;;;;15.40;99.90;;;;;;4958499;28;19917;-70
2023/07/02 04:57:02;;;;;;;;;;;15.40;99.90;;;;;;4951013;28;20084;-69
2023/07/02 04:59:28;;;;;;;;;;;15.40;99.90;;;;;;4957506;28;19922;-69
2023/07/02 05:01:53;;;;;;;;;;;15.40;99.90;;;;;;4974178;28;19932;-69
2023/07/02 05:04:19;;;;;;;;;;;15.40;99.90;;;;;;4958393;28;20268;-69
2023/07/02 05:06:44;;;;;;;;;;;15.40;99.90;;;;;;4975386;28;20628;-69
2023/07/02 05:09:10;;;;;;;;;;;15.40;99.90;;;;;;4974929;28;21159;-69
2023/07/02 05:11:35;;;;;;;;;;;15.30;99.90;;;;;;4975407;28;19922;-70
2023/07/02 05:14:01;;;;;;;;;;;15.30;99.90;;;;;;4967015;28;20399;-70
2023/07/02 05:16:27;;;;;;;;;;;15.30;99.90;;;;;;4974942;28;19937;-69
2023/07/02 05:18:52;;;;;;;;;;;15.30;99.90;;;;;;4976047;28;19930;-69
2023/07/02 05:21:18;;;;;;;;;;;15.40;99.90;;;;;;4958447;28;19932;-69
2023/07/02 05:23:44;;;;;;;;;;;15.40;99.90;;;;;;4957821;28;19924;-69
2023/07/02 05:26:10;;;;;;;;;;;15.50;99.90;;;;;;4967688;28;19968;-69
2023/07/02 05:28:35;;;;;;;;;;;15.50;99.90;;;;;;4950863;28;19925;-69
2023/07/02 05:31:01;;;;;;;;;;;15.50;99.90;;;;;;4956983;28;21266;-69
2023/07/02 05:33:27;;;;;;;;;;;15.50;99.90;;;;;;4973762;28;20399;-69
2023/07/02 05:35:52;;;;;;;;;;;15.60;99.90;;;;;;4967517;28;19926;-69
2023/07/02 05:38:18;;;;;;;;;;;15.60;99.90;;;;;;4968329;28;20407;-69
2023/07/02 05:40:44;;;;;;;;;;;15.60;99.90;;;;;;4974436;28;19924;-69
2023/07/02 05:43:10;;;;;;;;;;;15.60;99.90;;;;;;4975836;28;19925;-70
2023/07/02 05:45:35;;;;;;;;;;;15.60;99.90;;;;;;4953738;28;20359;-69
2023/07/02 05:48:01;;;;;;;;;;;15.60;99.90;;;;;;4966899;28;19925;-70
2023/07/02 05:50:26;;;;;;;;;;;15.50;99.90;;;;;;4974314;28;19948;-71
2023/07/02 05:52:52;;;;;;;;;;;15.50;99.90;;;;;;4975682;28;19925;-71
2023/07/02 05:55:18;;;;;;;;;;;15.60;99.90;;;;;;4975321;28;19971;-69
2023/07/02 05:57:43;;;;;;;;;;;15.60;99.90;;;;;;4975283;28;20379;-71
2023/07/02 06:00:09;;;;;;;;;;;15.60;99.90;;;;;;4957158;28;20607;-70
2023/07/02 06:02:34;;;;;;;;;;;15.60;99.90;;;;;;4974448;28;20355;-70
2023/07/02 06:05:01;;;;;;;;;;;15.70;99.90;;;;;;4974611;28;20297;-70
2023/07/02 06:07:27;;;;;;;;;;;15.80;99.90;;;;;;4974969;28;20941;-70
2023/07/02 06:09:52;;;;;;;;;;;15.90;99.90;;;;;;4971014;28;20000;-70
2023/07/02 06:12:18;;;;;;;;;;;16.00;99.90;;;;;;4942274;28;19929;-71
2023/07/02 06:14:44;;;;;;;;;;;16.00;99.90;;;;;;4967777;28;19922;-70
2023/07/02 06:17:09;;;;;;;;;;;16.00;99.90;;;;;;4974295;28;19917;-70
2023/07/02 06:19:36;;;;;;;;;;;16.00;99.90;;;;;;4955873;28;20303;-70
2023/07/02 06:22:02;;;;;;;;;;;16.00;99.90;;;;;;4970643;28;19925;-70
2023/07/02 06:24:27;;;;;;;;;;;16.10;99.90;;;;;;4974881;28;19940;-70
2023/07/02 06:26:53;;;;;;;;;;;16.10;99.90;;;;;;4973862;28;19929;-71
2023/07/02 06:29:18;;;;;;;;;;;16.10;99.90;;;;;;4966020;28;19935;-71
2023/07/02 06:31:44;;;;;;;;;;;16.10;99.90;;;;;;4956695;28;19932;-70
2023/07/02 06:34:09;;;;;;;;;;;16.10;99.90;;;;;;4973961;28;20349;-70
2023/07/02 06:36:35;;;;;;;;;;;16.10;99.90;;;;;;4956555;28;19922;-71
2023/07/02 06:39:01;;;;;;;;;;;16.20;99.90;;;;;;4973025;28;19940;-70
2023/07/02 06:41:26;;;;;;;;;;;16.20;99.90;;;;;;4973924;28;20008;-70
2023/07/02 06:43:52;;;;;;;;;;;16.30;99.90;;;;;;4973888;28;20592;-70
2023/07/02 06:46:17;;;;;;;;;;;16.30;99.90;;;;;;4972723;28;19922;-69
2023/07/02 06:48:43;;;;;;;;;;;16.40;99.90;;;;;;4953986;28;20327;-70
2023/07/02 06:51:09;;;;;;;;;;;16.50;99.90;;;;;;4972434;28;19936;-70
2023/07/02 06:53:35;;;;;;;;;;;16.50;99.90;;;;;;4973793;28;19952;-70
2023/07/02 06:56:01;;;;;;;;;;;16.50;99.90;;;;;;4969102;28;19975;-69
2023/07/02 06:58:26;;;;;;;;;;;16.50;99.90;;;;;;4951765;28;20364;-70
2023/07/02 07:00:52;;;;;;;;;;;16.40;99.90;;;;;;4971175;28;19929;-69
2023/07/02 07:03:17;;;;;;;;;;;16.40;99.90;;;;;;4973738;28;19922;-69
2023/07/02 07:05:43;;;;;;;;;;;16.40;99.90;;;;;;4973239;28;19926;-69
2023/07/02 07:08:08;;;;;;;;;;;16.40;99.90;;;;;;4973572;28;19930;-69
2023/07/02 07:10:34;;;;;;;;;;;16.50;99.90;;;;;;4973381;28;19922;-70
2023/07/02 07:13:04;;;;;;;;;;;16.60;99.90;;;;;;4955715;28;19944;-69
2023/07/02 07:15:30;;;;;;;;;;;16.60;99.90;;;;;;4972182;28;20004;-70
2023/07/02 07:17:55;;;;;;;;;;;16.60;99.90;;;;;;4974383;28;19965;-70
2023/07/02 07:20:21;;;;;;;;;;;16.70;99.90;;;;;;4973922;28;20342;-69
2023/07/02 07:22:46;;;;;;;;;;;16.70;99.90;;;;;;4970329;28;19925;-70
2023/07/02 07:25:12;;;;;;;;;;;16.80;99.90;;;;;;4954951;28;19961;-70
2023/07/02 07:27:38;;;;;;;;;;;16.80;99.90;;;;;;4972275;28;20279;-69
2023/07/02 07:30:04;;;;;;;;;;;16.90;99.90;;;;;;4972233;28;19940;-69
2023/07/02 07:32:29;;;;;;;;;;;16.90;99.90;;;;;;4967200;28;19925;-70
2023/07/02 07:34:55;;;;;;;;;;;16.90;99.90;;;;;;4972724;28;20403;-69
2023/07/02 07:37:21;;;;;;;;;;;17.00;99.90;;;;;;4974307;28;19926;-70
2023/07/02 07:39:46;;;;;;;;;;;17.00;99.90;;;;;;4971796;28;20599;-69
2023/07/02 07:42:15;;;;;;;;;;;17.10;99.90;;;;;;4972777;28;19933;-69
2023/07/02 07:44:40;;;;;;;;;;;17.10;99.90;;;;;;4948935;28;19971;-69
2023/07/02 07:47:06;;;;;;;;;;;17.10;99.90;;;;;;4971242;28;20068;-70
2023/07/02 07:49:31;;;;;;;;;;;17.00;99.90;;;;;;4971893;28;19918;-70
2023/07/02 07:51:57;;;;;;;;;;;17.10;99.90;;;;;;4954324;28;19937;-71
2023/07/02 07:54:22;;;;;;;;;;;17.10;99.90;;;;;;4954459;28;19926;-70
2023/07/02 07:56:48;;;;;;;;;;;17.10;99.90;;;;;;4974044;28;19929;-66
2023/07/02 07:59:14;;;;;;;;;;;17.20;99.90;;;;;;4974255;28;19926;-66
2023/07/02 08:01:40;;;;;;;;;;;17.30;99.90;;;;;;4973337;28;19969;-66
2023/07/02 08:04:05;;;;;;;;;;;17.30;99.90;;;;;;4958285;28;20158;-66
2023/07/02 08:06:31;;;;;;;;;;;17.30;99.90;;;;;;4970522;28;20368;-66
2023/07/02 08:08:57;;;;;;;;;;;17.40;99.90;;;;;;4968751;28;20187;-66
2023/07/02 08:11:22;;;;;;;;;;;17.40;99.90;;;;;;4959602;28;20478;-66
2023/07/02 08:13:48;;;;;;;;;;;17.40;99.90;;;;;;4977292;28;20949;-66
2023/07/02 08:16:13;;;;;;;;;;;17.30;99.90;;;;;;4969314;28;19917;-67
2023/07/02 08:18:39;;;;;;;;;;;17.30;99.90;;;;;;4969323;28;20352;-66
2023/07/02 08:21:06;;;;;;;;;;;17.30;99.90;;;;;;4978172;28;19952;-66
2023/07/02 08:31:49;;;;;;;13.35;3.17;;;17.60;99.90;;;;;;5063479;27;20872;-73
2023/07/02 08:34:15;;;;;;;8.05;2.28;;;17.70;99.90;;;;;;5041265;28;20143;-69
2023/07/02 08:36:43;;;;;;;9.60;2.53;;;17.70;99.90;;;;;;5037505;28;20053;-66
2023/07/02 08:39:09;;;;;;;10.13;3.30;;;17.70;99.90;;;;;;5039167;28;20052;-66
2023/07/02 08:41:45;;;;;;;13.02;2.83;;;17.80;99.90;;;;;;5040691;28;20769;-66
2023/07/02 08:44:13;;;;;;;8.40;2.13;;;17.80;99.90;;;;;;5044117;28;20682;-66
2023/07/02 08:46:40;;;;;;;12.25;3.03;;;17.70;99.90;;;;;;5042291;28;20057;-66
2023/07/02 08:49:06;;;;;;;11.93;2.90;;;17.60;99.90;;;;;;5041035;28;20198;-66
2023/07/02 08:51:32;;;;;;;14.27;2.85;;;17.50;99.90;;;;;;5039739;28;20068;-65
2023/07/02 08:53:57;;;;;;;14.05;3.30;;;17.50;99.90;;;;;;5045320;28;20501;-65
2023/07/02 08:56:24;;;;;;;10.05;2.72;;;17.40;99.90;;;;;;5043824;28;20056;-65
2023/07/02 08:58:49;;;;;;;7.47;2.85;;;17.40;99.90;;;;;;5046944;28;20049;-66
2023/07/02 09:01:15;;;;;;;10.82;2.30;;;17.40;99.90;;;;;;5039198;28;20279;-66
2023/07/02 09:03:41;;;;;;;8.57;2.58;;;17.50;99.90;;;;;;5042895;28;20052;-67
2023/07/02 09:06:09;;;;;;;8.80;2.97;;;17.60;99.90;;;;;;5041654;28;20044;-66
2023/07/02 09:08:35;;;;;;;8.15;2.08;;;17.50;99.90;;;;;;5043255;28;20111;-66
2023/07/02 09:11:07;;;;;;;9.82;2.75;;;17.50;99.90;;;;;;5045723;28;20091;-66
2023/07/02 09:13:50;;;;;;;6.75;1.88;;;17.50;99.90;;;;;;5043459;28;20450;-66
2023/07/02 09:16:31;;;;;;;6.60;2.10;;;17.50;99.90;;;;;;5040588;28;21302;-66
2023/07/02 09:19:05;;;;;;;10.15;2.28;;;17.50;99.90;;;;;;5045196;28;20700;-66
2023/07/02 09:21:47;;;;;;;7.28;2.42;;;17.60;99.90;;;;;;5045399;28;20571;-66
2023/07/02 09:24:22;;;;;;;11.57;2.22;;;17.70;99.90;;;;;;5045010;28;20037;-66
2023/07/02 09:26:50;;;;;;;7.20;2.10;;;18.00;99.90;;;;;;5042926;28;20536;-67
2023/07/02 09:29:34;;;;;;;9.65;1.80;;;18.10;99.90;;;;;;5042768;28;20064;-67
2023/07/02 09:32:02;;;;;;;5.20;2.10;;;18.10;99.90;;;;;;5044076;28;20091;-67
2023/07/02 09:34:29;;;;;;;7.60;1.95;;;18.10;99.90;;;;;;5047439;28;20048;-66
2023/07/02 09:36:54;;;;;;;10.07;2.90;;;17.90;99.90;;;;;;5042613;28;20040;-66
2023/07/02 09:39:25;;;;;;;10.77;2.80;;;17.70;99.90;;;;;;5043669;28;20630;-67
2023/07/02 09:41:51;;;;;;;6.65;2.67;;;17.60;99.90;;;;;;5039729;28;20072;-66
2023/07/02 09:44:18;;;;;;;10.88;3.10;;;17.70;99.90;;;;;;5030551;28;20881;-67
2023/07/02 09:47:05;;;;;;;7.95;2.30;;;17.90;99.90;;;;;;5031361;28;20093;-67
2023/07/02 09:49:37;;;;;;;;;;;18.00;99.90;;;;;;5033655;28;20040;-66
2023/07/02 09:52:10;;;;;;;13.30;2.60;;;17.90;99.90;;;;;;5032290;28;19925;-66
2023/07/02 09:54:37;;;;;;;8.82;2.20;;;17.90;99.90;;;;;;5035555;28;20079;-68
2023/07/02 09:57:03;;;;;;;11.02;2.72;;;17.90;99.90;;;;;;5031613;28;20148;-67
2023/07/02 09:59:29;;;;;;;9.48;2.45;;;18.10;99.90;;;;;;5023080;28;20041;-67
2023/07/02 10:01:55;;;;;;;;;;;18.30;99.90;;;;;;5030889;28;20291;-72
2023/07/02 10:04:25;;;;;;;6.10;1.65;;;18.60;99.90;;;;;;5028643;28;20225;-68
2023/07/02 10:06:52;;;;;;;5.18;1.80;;;18.80;99.90;;;;;;5031386;28;20037;-70
2023/07/02 10:09:34;;;;;;;6.57;1.73;;;18.90;99.90;;;;;;5032318;28;20049;-69
2023/07/02 10:12:00;;;;;;;8.38;1.90;;;19.00;99.90;;;;;;5033932;28;20404;-66
2023/07/02 10:14:25;;;;;;;11.07;2.25;;;19.10;99.90;;;;;;5029643;28;20079;-67
2023/07/02 10:16:53;;;;;;;9.55;2.17;;;19.00;99.90;;;;;;5024477;28;20103;-66
2023/07/02 10:19:19;;;;;;;8.63;2.05;;;18.80;99.90;;;;;;5027240;28;20159;-67
2023/07/02 10:21:46;;;;;;;10.57;2.45;;;18.60;99.90;;;;;;5027293;28;20150;-66
2023/07/02 10:24:16;;;;;;;8.60;2.33;;;18.60;99.90;;;;;;5025135;28;20562;-66
2023/07/02 10:26:59;;;;;;;5.53;2.28;;;18.50;99.90;;;;;;5024405;28;20648;-66
2023/07/02 10:29:27;;;;;;;7.78;2.00;;;18.40;99.90;;;;;;5027893;28;20136;-66
2023/07/02 10:31:57;;;;;;;9.00;2.00;;;18.30;99.90;;;;;;5020054;28;20821;-66
2023/07/02 10:34:33;;;;;;;11.20;2.63;;;18.30;99.90;;;;;;5023524;28;20036;-66
2023/07/02 10:37:00;;;;;;;;;;;18.30;99.90;;;;;;5023872;28;20045;-66
2023/07/02 10:39:26;;;;;;;7.27;2.10;;;18.40;99.90;;;;;;5026303;28;19924;-66
2023/07/02 10:41:52;;;;;;;11.60;3.00;;;18.60;99.90;;;;;;5026718;28;20329;-66
2023/07/02 10:44:18;;;;;;;9.35;1.70;;;18.60;99.90;;;;;;5022999;28;20513;-66
2023/07/02 10:46:48;;;;;;;8.65;2.05;;;18.60;99.90;;;;;;5026458;28;20041;-66
2023/07/02 10:49:19;;;;;;;9.70;2.45;;;18.60;99.90;;;;;;5027271;28;20071;-67
2023/07/02 10:51:45;;;;;;;6.47;2.42;;;18.50;99.90;;;;;;5025580;28;20049;-67
2023/07/02 10:54:11;;;;;;;7.05;2.15;;;18.60;99.90;;;;;;5026872;28;20037;-71
2023/07/02 10:56:36;;;;;;;;;;;18.60;99.90;;;;;;5042125;28;20532;-73
2023/07/02 10:59:03;;;;;;;6.40;1.80;;;18.60;99.90;;;;;;5024951;28;19925;-67
2023/07/02 11:01:31;;;;;;;4.40;1.50;;;18.60;99.90;;;;;;5023532;28;20049;-67
2023/07/02 11:03:59;;;;;;;10.10;1.85;;;18.50;99.90;;;;;;5026815;28;20095;-68
2023/07/02 11:06:26;;;;;;;7.30;2.08;;;18.50;99.90;;;;;;5025485;28;20041;-67
2023/07/02 11:08:52;;;;;;;4.97;1.80;;;18.40;99.90;;;;;;5024490;28;21932;-66
2023/07/02 11:11:17;;;;;;;7.72;1.95;;;18.30;99.90;;;;;;5024151;28;20472;-66
2023/07/02 11:13:49;;;;;;;6.68;1.95;;;18.20;99.90;;;;;;5026327;28;21307;-66
2023/07/02 11:16:34;;;;;;;6.13;2.35;;;18.20;99.90;;;;;;5021327;28;20047;-66
2023/07/02 11:19:10;;;;;;;5.75;1.83;;;18.20;99.90;;;;;;5025357;28;20055;-66
2023/07/02 11:21:37;;;;;;;5.87;1.93;;;18.10;99.90;;;;;;5025881;28;20045;-65
2023/07/02 11:24:08;;;;;;;8.70;1.98;;;18.20;99.90;;;;;;5022710;28;20471;-66
2023/07/02 11:26:37;;;;;;;4.93;1.52;;;18.20;99.90;;;;;;5023108;28;20207;-67
2023/07/02 11:29:03;;;;;;;7.70;1.80;;;18.20;99.90;;;;;;5021422;28;20045;-66
2023/07/02 11:31:29;;;;;;;6.43;2.38;;;18.30;99.90;;;;;;5023450;28;20045;-66
2023/07/02 11:33:54;;;;;;;7.88;2.10;;;18.30;99.90;;;;;;5019487;28;20045;-66
2023/07/02 11:36:23;;;;;;;7.53;2.00;;;18.20;99.90;;;;;;5023124;28;20061;-66
2023/07/02 11:38:51;;;;;;;9.95;2.35;;;18.20;99.90;;;;;;5022028;28;20433;-67
2023/07/02 11:41:17;;;;;;;8.95;1.52;;;18.20;99.90;;;;;;5020519;28;20768;-66
2023/07/02 11:43:43;;;;;;;;;;;18.50;99.90;;;;;;5023655;28;20048;-66
2023/07/02 11:46:09;;;;;;;8.15;2.33;;;18.60;99.90;;;;;;5021838;28;20420;-67
2023/07/02 11:48:34;;;;;;;7.78;1.60;;;18.70;99.90;;;;;;5015893;28;20041;-67
2023/07/02 11:51:00;;;;;;;8.90;2.15;;;18.80;99.90;;;;;;5024072;28;20052;-66
2023/07/02 11:53:26;;;;;;;6.13;1.63;;;18.90;99.90;;;;;;5025261;28;20040;-66
2023/07/02 11:55:51;;;;;;;4.13;1.40;;;19.00;99.90;;;;;;5024367;28;21712;-66
2023/07/02 11:58:17;;;;;;;7.88;1.60;;;19.00;99.90;;;;;;5023496;28;20052;-66
2023/07/02 12:00:43;;;;;;;4.13;1.50;;;19.00;99.90;;;;;;5020249;28;20065;-66
2023/07/02 12:03:10;;;;;;;5.93;1.95;;;18.80;99.90;;;;;;5022938;28;20051;-65
2023/07/02 12:05:35;;;;;;;7.22;2.13;;;18.70;99.90;;;;;;5023657;28;20060;-66
2023/07/02 12:08:02;;;;;;;9.00;2.08;;;18.80;99.90;;;;;;5022926;28;20037;-66
2023/07/02 12:10:28;;;;;;;7.50;2.00;;;18.70;99.90;;;;;;5024093;28;20052;-66
2023/07/02 12:12:53;;;;;;;8.27;2.20;;;18.70;99.90;;;;;;5023696;28;20048;-66
2023/07/02 12:15:19;;;;;;;6.65;2.08;;;18.70;99.90;;;;;;5025353;28;20115;-66
2023/07/02 12:17:45;;;;;;;7.70;2.30;;;18.90;99.90;;;;;;5026180;28;20041;-66
2023/07/02 12:20:11;;;;;;;5.35;2.20;;;19.00;99.90;;;;;;5025338;28;20052;-66
2023/07/02 12:22:36;;;;;;;7.78;2.42;;;19.00;99.90;;;;;;5026975;28;20485;-66
2023/07/02 12:25:02;;;;;;;7.03;2.80;;;19.00;99.90;;;;;;5025774;28;20151;-66
2023/07/02 12:27:28;;;;;;;7.70;2.92;;;18.80;99.90;;;;;;5025160;28;20299;-66
2023/07/02 12:29:56;;;;;;;11.05;2.70;;;18.70;99.90;;;;;;5026918;28;20676;-66
2023/07/02 12:32:21;;;;;;;8.98;2.40;;;18.60;99.90;;;;;;5027706;28;20517;-65
2023/07/02 12:34:47;;;;;;;11.52;3.25;;;18.60;99.90;;;;;;5025631;28;20037;-65
2023/07/02 12:37:17;;;;;;;8.27;3.13;;;18.50;99.90;;;;;;5024700;28;20135;-66
2023/07/02 12:39:42;;;;;;;8.43;2.92;;;18.40;99.90;;;;;;5023525;28;20534;-66
2023/07/02 12:42:08;;;;;;;12.73;2.70;;;18.40;99.90;;;;;;5027201;28;20052;-67
2023/07/02 12:44:34;;;;;;;11.55;3.20;;;18.30;99.90;;;;;;5026268;28;20367;-66
2023/07/02 12:46:59;;;;;;;12.27;2.95;;;18.30;99.90;;;;;;5027501;28;20044;-66
2023/07/02 12:49:25;;;;;;;7.95;2.90;;;18.20;99.90;;;;;;5021352;28;20084;-67
2023/07/02 12:51:51;;;;;;;8.40;3.33;;;18.20;99.90;;;;;;5023775;28;20045;-66
2023/07/02 12:54:16;;;;;;;11.77;3.40;;;18.20;99.90;;;;;;5022619;28;20045;-66
2023/07/02 12:56:42;;;;;;;9.63;2.95;;;18.20;99.90;;;;;;5024972;28;20517;-66
2023/07/02 12:59:08;;;;;;;10.25;2.92;;;18.10;99.90;;;;;;5023542;28;20048;-68
2023/07/02 13:01:33;;;;;;;8.70;3.10;;;18.20;99.90;;;;;;5027567;28;20052;-66
2023/07/02 13:03:59;;;;;;;11.68;3.45;;;18.30;99.90;;;;;;5027034;28;20143;-66
2023/07/02 13:06:25;;;;;;;9.07;2.92;;;18.30;99.90;;;;;;5026319;28;20137;-66
2023/07/02 13:08:51;;;;;;;10.52;2.95;;;18.30;99.90;;;;;;5025377;28;21175;-66
2023/07/02 13:11:16;;;;;;;8.07;3.13;;;18.30;99.90;;;;;;5026865;28;20294;-66
2023/07/02 13:13:42;;;;;;;10.60;4.10;;;18.20;99.90;;;;;;5026993;28;20045;-66
2023/07/02 13:16:08;;;;;;;11.10;3.20;;;18.30;99.90;;;;;;5026690;28;20482;-66
2023/07/02 13:18:33;;;;;;;8.15;2.88;;;18.40;99.90;;;;;;5028560;28;20328;-66
2023/07/02 13:20:59;;;;;;;14.15;4.53;;;18.50;99.90;;;;;;5028373;28;20048;-66
2023/07/02 13:23:26;;;;;;;14.43;3.40;;;18.50;99.90;;;;;;5024410;28;20102;-66
2023/07/02 13:25:52;;;;;;;8.57;2.70;;;18.40;99.90;;;;;;5029239;28;20049;-66
2023/07/02 13:28:19;;;;;;;13.75;3.55;;;18.30;99.90;;;;;;5030077;28;21614;-66
2023/07/02 13:30:45;;;;;;;11.93;3.13;;;18.30;99.90;;;;;;5030164;28;20053;-66
2023/07/02 13:33:10;;;;;;;8.63;2.78;;;18.20;99.90;;;;;;5027656;28;20190;-65
2023/07/02 13:35:37;;;;;;;12.73;3.20;;;18.10;99.90;;;;;;5029331;28;20396;-66
2023/07/02 13:38:04;;;;;;;11.82;3.50;;;18.10;99.90;;;;;;5029956;28;20053;-66
2023/07/02 13:40:30;;;;;;;10.40;3.58;;;18.00;99.90;;;;;;5027860;28;20470;-66
2023/07/02 13:42:56;;;;;;;8.13;3.05;;;17.90;99.90;;;;;;5028773;28;20045;-66